Time;durP1;ratioP1;P1;durP2;ratioP2;P2;SDS_P1;SDS_P2;PMS_P1;PMS_P2;Temp;Humidity;BMP_temperature;BMP_pressure;BME280_temperature;BME280_humidity;BME280_pressure;Samples;Min_cycle;Max_cycle;Signal;HPM_P1;HPM_P2
2022/04/17 00:00:39;;;;;;;2.50;1.33;;;8.70;62.60;;;;;;6202602;28;20054;-86
2022/04/17 00:03:41;;;;;;;2.55;1.38;;;8.70;62.80;;;;;;6203691;28;20185;-86
2022/04/17 00:06:43;;;;;;;7.75;1.88;;;8.70;62.80;;;;;;6202924;28;20050;-86
2022/04/17 00:09:46;;;;;;;3.63;1.35;;;8.70;62.60;;;;;;6203049;28;20048;-86
2022/04/17 00:12:48;;;;;;;2.47;1.40;;;8.70;62.60;;;;;;6204042;28;20061;-85
2022/04/17 00:15:51;;;;;;;2.95;1.30;;;8.70;62.70;;;;;;6203335;28;20550;-85
2022/04/17 00:18:52;;;;;;;3.70;1.45;;;8.70;62.80;;;;;;6217964;23;20133;-77
2022/04/17 00:21:54;;;;;;;4.75;1.20;;;8.70;62.80;;;;;;6198838;28;20046;-76
2022/04/17 00:24:59;;;;;;;3.80;1.70;;;8.70;63.00;;;;;;6201279;28;20050;-78
2022/04/17 00:28:00;;;;;;;2.53;1.40;;;8.70;63.10;;;;;;6202879;28;20060;-79
2022/04/17 00:31:02;;;;;;;4.95;1.70;;;8.60;63.50;;;;;;6197455;28;20053;-76
2022/04/17 00:34:04;;;;;;;4.28;1.52;;;8.60;63.80;;;;;;6201196;28;20082;-77
2022/04/17 00:37:06;;;;;;;2.85;1.15;;;8.50;64.20;;;;;;6201369;28;20136;-77
2022/04/17 00:40:10;;;;;;;2.47;1.83;;;8.50;64.30;;;;;;6201357;28;20054;-77
2022/04/17 00:43:23;;;;;;;2.97;1.77;;;8.40;64.90;;;;;;6200766;28;20084;-77
2022/04/17 00:46:25;;;;;;;3.58;1.63;;;8.30;65.10;;;;;;6201164;28;20042;-77
2022/04/17 00:49:27;;;;;;;3.83;1.38;;;8.30;65.70;;;;;;6200122;28;20578;-77
2022/04/17 00:52:29;;;;;;;2.78;1.73;;;8.20;65.90;;;;;;6201214;28;20559;-77
2022/04/17 00:55:32;;;;;;;5.03;1.80;;;8.20;66.00;;;;;;6197981;28;20046;-77
2022/04/17 00:58:36;;;;;;;3.20;1.42;;;8.10;66.30;;;;;;6199272;28;20547;-77
2022/04/17 01:01:38;;;;;;;3.72;1.80;;;8.10;66.90;;;;;;6200633;28;20192;-77
2022/04/17 01:04:40;;;;;;;4.35;1.80;;;8.10;66.80;;;;;;6201437;28;20177;-79
2022/04/17 01:07:41;;;;;;;3.90;1.50;;;7.90;66.90;;;;;;6200271;28;20051;-77
2022/04/17 01:10:45;;;;;;;3.45;1.58;;;7.90;67.80;;;;;;6200498;28;20051;-77
2022/04/17 01:13:47;;;;;;;3.60;1.75;;;7.80;67.80;;;;;;6200400;28;20126;-77
2022/04/17 01:16:49;;;;;;;3.55;1.67;;;7.80;68.30;;;;;;6200623;28;20205;-77
2022/04/17 01:19:50;;;;;;;4.05;1.73;;;7.70;68.10;;;;;;6200246;28;20054;-77
2022/04/17 01:26:55;;;;;;;3.75;1.92;;;7.70;68.60;;;;;;6200064;28;20050;-76
2022/04/17 01:29:36;;;;;;;5.05;2.08;;;7.60;68.70;;;;;;6199942;28;20121;-79
2022/04/17 01:32:38;;;;;;;3.72;1.30;;;7.50;69.00;;;;;;6200350;28;20124;-79
2022/04/17 01:35:40;;;;;;;6.53;1.90;;;7.50;69.90;;;;;;6200461;28;20046;-79
2022/04/17 01:38:43;;;;;;;5.63;2.03;;;7.40;70.30;;;;;;6200473;28;20054;-79
2022/04/17 01:41:45;;;;;;;3.35;1.85;;;7.40;70.60;;;;;;6201741;28;20050;-77
2022/04/17 01:44:47;;;;;;;3.40;1.80;;;7.30;70.70;;;;;;6204217;28;20054;-78
2022/04/17 01:47:49;;;;;;;3.13;1.45;;;7.20;72.00;;;;;;6201647;28;20058;-78
2022/04/17 01:50:51;;;;;;;2.50;1.55;;;7.10;72.50;;;;;;6203257;28;20046;-78
2022/04/17 01:53:54;;;;;;;3.55;2.35;;;7.10;73.10;;;;;;6202405;28;20121;-78
2022/04/17 01:56:57;;;;;;;5.22;2.08;;;7.00;73.40;;;;;;6198194;28;20054;-78
2022/04/17 01:59:59;;;;;;;1.92;1.73;;;6.90;73.60;;;;;;6199356;28;20089;-78
2022/04/17 02:03:01;;;;;;;6.10;1.95;;;6.80;73.60;;;;;;6202007;28;20050;-78
2022/04/17 02:06:03;;;;;;;4.70;1.70;;;6.80;74.00;;;;;;6202069;28;20050;-78
2022/04/17 02:09:08;;;;;;;5.38;1.83;;;6.70;73.80;;;;;;6202055;28;20523;-79
2022/04/17 02:12:10;;;;;;;2.65;1.67;;;6.70;74.30;;;;;;6202892;28;20138;-78
2022/04/17 02:15:12;;;;;;;5.53;1.88;;;6.70;74.90;;;;;;6202021;28;20050;-78
2022/04/17 02:18:16;;;;;;;5.40;2.13;;;6.60;75.00;;;;;;6201755;28;20053;-79
2022/04/17 02:21:18;;;;;;;4.38;2.20;;;6.60;75.20;;;;;;6202518;28;20050;-78
2022/04/17 02:24:21;;;;;;;6.78;2.38;;;6.60;75.30;;;;;;6202548;28;20049;-78
2022/04/17 02:27:23;;;;;;;3.03;2.10;;;6.50;75.20;;;;;;6201391;28;20051;-78
2022/04/17 02:30:24;;;;;;;4.00;2.50;;;6.50;75.20;;;;;;6201253;28;20049;-78
2022/04/17 02:33:26;;;;;;;6.30;2.35;;;6.50;75.70;;;;;;6202075;28;20396;-78
2022/04/17 02:36:28;;;;;;;5.10;2.22;;;6.50;75.80;;;;;;6201488;28;20152;-78
2022/04/17 02:39:31;;;;;;;3.15;2.17;;;6.50;75.80;;;;;;6200755;28;20074;-78
2022/04/17 02:42:33;;;;;;;4.40;2.20;;;6.50;75.80;;;;;;6199718;28;20053;-78
2022/04/17 02:45:34;;;;;;;4.78;2.00;;;6.50;75.60;;;;;;6199905;28;20050;-78
2022/04/17 02:48:36;;;;;;;4.30;2.33;;;6.50;75.50;;;;;;6201498;28;20054;-78
2022/04/17 02:51:38;;;;;;;5.40;2.30;;;6.50;74.90;;;;;;6200499;28;20043;-78
2022/04/17 02:54:41;;;;;;;6.05;1.95;;;6.50;74.80;;;;;;6201062;28;20080;-78
2022/04/17 02:57:43;;;;;;;4.53;2.17;;;6.40;75.30;;;;;;6197178;28;20082;-78
2022/04/17 03:07:24;;;;;;;5.28;2.30;;;6.40;76.30;;;;;;6200394;28;20419;-78
2022/04/17 03:10:27;;;;;;;4.57;2.50;;;6.30;76.80;;;;;;6199569;28;20058;-78
2022/04/17 03:13:29;;;;;;;6.22;1.73;;;6.30;77.30;;;;;;6200272;28;20397;-78
2022/04/17 03:16:31;;;;;;;7.25;2.10;;;6.20;77.80;;;;;;6200644;28;20050;-78
2022/04/17 03:19:32;;;;;;;3.40;2.00;;;6.10;77.50;;;;;;6199141;28;20054;-78
2022/04/17 03:22:34;;;;;;;4.50;2.33;;;6.10;78.20;;;;;;6200362;28;20046;-78
2022/04/17 03:25:39;;;;;;;4.35;1.95;;;6.10;78.20;;;;;;6201774;28;20516;-78
2022/04/17 03:28:41;;;;;;;2.35;1.73;;;6.10;78.90;;;;;;6204306;28;20042;-78
2022/04/17 03:31:44;;;;;;;4.38;2.75;;;6.00;78.90;;;;;;6199147;28;20054;-78
2022/04/17 03:34:46;;;;;;;6.13;2.50;;;5.90;78.90;;;;;;6198850;28;20580;-77
2022/04/17 03:37:48;;;;;;;7.40;2.33;;;5.90;79.20;;;;;;6198347;28;20050;-78
2022/04/17 03:40:51;;;;;;;4.82;2.22;;;5.90;79.50;;;;;;6199355;28;20113;-77
2022/04/17 03:43:53;;;;;;;6.35;2.38;;;5.80;79.40;;;;;;6199439;28;20051;-78
2022/04/17 03:46:54;;;;;;;3.90;2.20;;;5.80;79.40;;;;;;6198790;28;20056;-78
2022/04/17 03:49:56;;;;;;;4.13;2.50;;;5.70;79.10;;;;;;6199032;28;20054;-78
2022/04/17 03:52:58;;;;;;;3.83;2.22;;;5.70;79.30;;;;;;6199001;28;20345;-78
2022/04/17 03:56:01;;;;;;;4.72;2.15;;;5.70;79.40;;;;;;6199503;28;20057;-79
2022/04/17 03:59:03;;;;;;;6.57;2.97;;;5.70;79.80;;;;;;6195615;28;20090;-78
2022/04/17 04:02:05;;;;;;;3.90;2.72;;;5.60;80.00;;;;;;6198681;28;20050;-79
2022/04/17 04:05:09;;;;;;;6.07;2.60;;;5.60;80.10;;;;;;6202468;28;20050;-79
2022/04/17 04:08:10;;;;;;;5.63;3.15;;;5.60;80.10;;;;;;6203417;28;20054;-79
2022/04/17 04:11:14;;;;;;;6.47;2.92;;;5.60;80.20;;;;;;6202239;28;20042;-79
2022/04/17 04:14:15;;;;;;;3.13;2.55;;;5.60;80.30;;;;;;6202030;28;20527;-79
2022/04/17 04:17:17;;;;;;;4.57;2.42;;;5.60;80.40;;;;;;6201793;28;20042;-79
2022/04/17 04:20:19;;;;;;;4.68;2.90;;;5.60;80.60;;;;;;6202560;28;20082;-79
2022/04/17 04:23:22;;;;;;;5.82;3.22;;;5.50;80.50;;;;;;6202749;28;20043;-79
2022/04/17 04:26:25;;;;;;;6.53;3.53;;;5.50;81.00;;;;;;6202239;28;20131;-79
2022/04/17 04:29:25;;;;;;;5.63;4.00;;;5.50;81.10;;;;;;6201788;28;20054;-79
2022/04/17 04:32:27;;;;;;;4.88;2.03;;;5.50;81.00;;;;;;6202039;28;20055;-79
2022/04/17 04:35:29;;;;;;;4.85;2.90;;;5.50;81.50;;;;;;6201385;28;20046;-79
2022/04/17 04:38:31;;;;;;;4.50;2.80;;;5.50;81.20;;;;;;6201225;28;20408;-79
2022/04/17 04:41:35;;;;;;;6.90;2.97;;;5.50;81.20;;;;;;6202187;28;20038;-79
2022/04/17 04:44:36;;;;;;;4.68;2.40;;;5.50;81.70;;;;;;6202261;28;20050;-79
2022/04/17 04:47:38;;;;;;;7.07;3.38;;;5.50;81.40;;;;;;6201299;28;20055;-78
2022/04/17 04:50:40;;;;;;;4.68;2.55;;;5.50;81.60;;;;;;6201087;28;20136;-78
2022/04/17 04:53:42;;;;;;;3.47;2.58;;;5.50;81.70;;;;;;6200796;28;20407;-79
2022/04/17 04:56:45;;;;;;;7.18;2.83;;;5.60;81.50;;;;;;6203165;28;20412;-78
2022/04/17 04:59:47;;;;;;;6.50;2.38;;;5.70;81.30;;;;;;6202310;28;20085;-79
2022/04/17 05:02:49;;;;;;;4.82;2.25;;;5.70;80.90;;;;;;6201156;28;20043;-78
2022/04/17 05:05:50;;;;;;;3.92;2.08;;;5.80;80.60;;;;;;6200787;28;20298;-78
2022/04/17 05:08:52;;;;;;;5.25;2.90;;;5.90;80.30;;;;;;6202314;28;20057;-78
2022/04/17 05:11:55;;;;;;;6.63;2.72;;;6.00;79.90;;;;;;6205144;28;20082;-79
2022/04/17 05:14:57;;;;;;;6.22;1.85;;;6.10;79.80;;;;;;6206554;28;20050;-78
2022/04/17 05:17:59;;;;;;;5.78;1.75;;;6.20;79.30;;;;;;6204907;28;20493;-78
2022/04/17 05:21:01;;;;;;;3.40;1.85;;;6.40;78.40;;;;;;6205512;28;20057;-79
2022/04/17 05:24:03;;;;;;;3.60;2.30;;;6.50;78.10;;;;;;6205849;28;20047;-78
2022/04/17 05:27:06;;;;;;;4.90;2.35;;;6.50;77.70;;;;;;6205763;28;20053;-78
2022/04/17 05:30:09;;;;;;;5.45;1.95;;;6.60;77.60;;;;;;6205980;28;20516;-79
2022/04/17 05:33:12;;;;;;;4.38;1.98;;;6.70;77.10;;;;;;6205492;28;20408;-79
2022/04/17 05:36:13;;;;;;;3.50;1.88;;;6.80;76.40;;;;;;6206064;28;20128;-79
2022/04/17 05:39:15;;;;;;;4.13;2.10;;;7.00;75.80;;;;;;6205333;28;20129;-79
2022/04/17 05:42:18;;;;;;;4.32;1.83;;;7.20;75.30;;;;;;6206302;28;20046;-79
2022/04/17 05:45:20;;;;;;;4.10;2.10;;;7.50;73.60;;;;;;6205225;28;20054;-79
2022/04/17 05:48:22;;;;;;;3.88;1.55;;;7.80;72.80;;;;;;6204358;28;20054;-78
2022/04/17 05:51:24;;;;;;;3.10;1.65;;;8.50;71.30;;;;;;6204148;28;20046;-79
2022/04/17 05:54:26;;;;;;;4.00;2.83;;;10.10;67.10;;;;;;6204881;28;20102;-79
2022/04/17 05:57:29;;;;;;;4.18;2.00;;;12.20;60.70;;;;;;6203364;28;20038;-78
2022/04/17 06:00:31;;;;;;;4.53;1.52;;;13.80;54.40;;;;;;6200688;28;20051;-78
2022/04/17 06:03:33;;;;;;;4.13;2.00;;;14.30;49.90;;;;;;6198191;28;20078;-78
2022/04/17 06:06:34;;;;;;;2.65;1.40;;;13.50;51.10;;;;;;6202629;28;20051;-79
2022/04/17 06:09:36;;;;;;;4.07;1.77;;;12.50;53.80;;;;;;6202167;28;20042;-79
2022/04/17 06:12:40;;;;;;;2.15;1.58;;;12.00;54.80;;;;;;6202912;28;20089;-78
2022/04/17 06:15:42;;;;;;;3.50;1.77;;;11.60;55.90;;;;;;6201791;28;20046;-78
2022/04/17 06:18:43;;;;;;;2.92;1.63;;;11.40;56.30;;;;;;6223219;23;20130;-78
2022/04/17 06:21:45;;;;;;;5.18;1.83;;;11.20;56.50;;;;;;6226857;28;20048;-80
2022/04/17 06:24:47;;;;;;;5.40;1.70;;;11.20;56.10;;;;;;6227975;28;20128;-81
2022/04/17 06:27:50;;;;;;;3.00;1.75;;;11.40;56.80;;;;;;6225953;28;20049;-80
2022/04/17 06:30:52;;;;;;;4.68;1.92;;;12.20;55.30;;;;;;6227253;28;20514;-79
2022/04/17 06:33:54;;;;;;;4.25;2.20;;;12.70;52.80;;;;;;6227540;28;20042;-79
2022/04/17 06:36:56;;;;;;;4.22;2.40;;;13.50;51.10;;;;;;6227368;28;20136;-79
2022/04/17 06:39:58;;;;;;;4.97;2.03;;;14.10;48.80;;;;;;6226625;28;20578;-79
2022/04/17 06:43:03;;;;;;;6.18;3.97;;;14.20;47.70;;;;;;6227018;28;20046;-80
2022/04/17 06:46:05;;;;;;;4.90;1.70;;;14.40;48.60;;;;;;6226583;28;20584;-81
2022/04/17 06:49:07;;;;;;;2.95;1.60;;;15.10;46.00;;;;;;6226367;28;20058;-80
2022/04/17 06:52:09;;;;;;;2.45;1.45;;;15.40;44.80;;;;;;6226520;28;20046;-80
2022/04/17 06:55:12;;;;;;;1.98;1.25;;;16.40;43.50;;;;;;6227981;28;20069;-81
2022/04/17 06:58:16;;;;;;;3.92;1.98;;;17.90;40.50;;;;;;6229518;28;20045;-81
2022/04/17 07:01:18;;;;;;;2.55;1.58;;;19.00;37.20;;;;;;6229550;28;20061;-81
2022/04/17 07:04:20;;;;;;;1.77;1.38;;;18.70;36.20;;;;;;6220580;28;20053;-81
2022/04/17 07:07:23;;;;;;;3.45;1.30;;;18.40;36.00;;;;;;6227028;28;20041;-80
2022/04/17 07:10:24;;;;;;;2.95;1.60;;;18.10;37.30;;;;;;6226835;28;20056;-81
2022/04/17 07:13:28;;;;;;;2.75;1.38;;;17.70;36.90;;;;;;6226831;28;20511;-80
2022/04/17 07:16:29;;;;;;;2.65;1.58;;;17.10;37.80;;;;;;6226490;28;20618;-82
2022/04/17 07:19:31;;;;;;;2.63;1.40;;;16.80;38.70;;;;;;6225811;28;20447;-81
2022/04/17 07:22:33;;;;;;;4.78;1.25;;;16.70;38.70;;;;;;6226656;28;20053;-81
2022/04/17 07:25:36;;;;;;;1.52;0.98;;;16.90;38.70;;;;;;6226305;28;20046;-82
2022/04/17 07:28:39;;;;;;;2.25;1.10;;;17.20;38.10;;;;;;6226668;28;20530;-82
2022/04/17 07:31:41;;;;;;;2.58;1.15;;;17.40;37.50;;;;;;6225936;28;20050;-82
2022/04/17 07:34:43;;;;;;;2.45;1.10;;;17.60;36.80;;;;;;6225981;28;20050;-82
2022/04/17 07:37:48;;;;;;;8.18;2.28;;;18.10;35.70;;;;;;6225883;28;20129;-81
2022/04/17 07:40:51;;;;;;;2.22;1.05;;;18.80;35.00;;;;;;6225821;28;20099;-81
2022/04/17 07:43:55;;;;;;;1.30;0.80;;;19.70;34.00;;;;;;6225781;28;20404;-82
2022/04/17 07:46:56;;;;;;;4.18;1.10;;;20.70;32.50;;;;;;6227093;28;20506;-80
2022/04/17 07:49:59;;;;;;;2.72;0.88;;;21.50;30.70;;;;;;6226063;28;20049;-82
2022/04/17 07:53:01;;;;;;;5.22;1.30;;;22.30;30.50;;;;;;6172774;28;20503;-81
2022/04/17 07:56:03;;;;;;;5.07;2.60;;;23.10;29.40;;;;;;6218962;28;20060;-82
2022/04/17 07:59:06;;;;;;;2.88;1.63;;;23.20;28.70;;;;;;6220638;28;20046;-81
2022/04/17 08:02:22;;;;;;;1.75;0.73;;;23.20;28.70;;;;;;6228120;28;20056;-82
2022/04/17 08:05:24;;;;;;;2.60;1.08;;;23.50;28.50;;;;;;6209766;28;20051;-83
2022/04/17 08:08:35;;;;;;;1.70;0.85;;;23.90;27.90;;;;;;6205087;28;20133;-83
2022/04/17 08:11:37;;;;;;;7.00;2.05;;;24.00;28.00;;;;;;6203135;28;20116;-82
2022/04/17 08:14:41;;;;;;;1.20;0.70;;;24.30;27.40;;;;;;6202515;28;20502;-81
2022/04/17 08:17:43;;;;;;;3.28;1.08;;;24.60;26.60;;;;;;6202741;28;20399;-82
2022/04/17 08:20:46;;;;;;;2.03;1.13;;;24.10;27.40;;;;;;6201852;28;20054;-82
2022/04/17 08:23:48;;;;;;;1.40;1.02;;;24.10;26.70;;;;;;6202322;28;20038;-82
2022/04/17 08:26:50;;;;;;;1.90;0.63;;;23.70;27.60;;;;;;6211701;28;20042;-83
2022/04/17 08:29:53;;;;;;;2.40;1.02;;;24.00;27.30;;;;;;6246613;28;20046;-82
2022/04/17 08:32:55;;;;;;;0.73;0.65;;;24.00;27.10;;;;;;6244430;28;20050;-83
2022/04/17 08:35:59;;;;;;;1.45;1.10;;;24.20;27.20;;;;;;6231243;28;20050;-83
2022/04/17 08:39:01;;;;;;;3.42;1.05;;;24.40;26.90;;;;;;6229422;28;20046;-83
2022/04/17 08:42:06;;;;;;;3.38;1.25;;;24.20;26.90;;;;;;6221905;28;20064;-83
2022/04/17 08:45:11;;;;;;;2.90;1.27;;;24.20;27.30;;;;;;6227085;28;20054;-84
2022/04/17 08:48:18;;;;;;;6.22;1.05;;;24.30;26.60;;;;;;6231793;28;20049;-83
2022/04/17 08:51:21;;;;;;;1.80;0.88;;;24.30;26.40;;;;;;6226510;28;20140;-83
2022/04/17 08:54:25;;;;;;;1.48;0.60;;;24.20;26.60;;;;;;6228202;28;20046;-81
2022/04/17 08:57:27;;;;;;;4.70;1.08;;;24.00;26.20;;;;;;6226518;28;20151;-82
2022/04/17 09:00:31;;;;;;;1.33;0.77;;;23.70;26.80;;;;;;6226883;28;20136;-82
2022/04/17 09:03:33;;;;;;;6.63;1.15;;;23.60;26.50;;;;;;6226412;28;20042;-82
2022/04/17 09:06:36;;;;;;;2.60;0.70;;;23.30;26.50;;;;;;6223600;28;20085;-82
2022/04/17 09:09:39;;;;;;;3.05;0.70;;;23.30;26.20;;;;;;6226950;28;20048;-83
2022/04/17 09:12:46;;;;;;;4.28;0.88;;;23.70;26.10;;;;;;6240637;28;20042;-82
2022/04/17 09:15:49;;;;;;;2.20;0.95;;;24.60;25.80;;;;;;6236760;28;20511;-84
2022/04/17 09:18:51;;;;;;;1.70;0.60;;;24.80;25.40;;;;;;6230478;28;20141;-83
2022/04/17 09:21:55;;;;;;;1.58;0.75;;;24.50;25.40;;;;;;6215328;28;20053;-82
2022/04/17 09:25:24;;;;;;;2.45;1.02;;;24.10;25.40;;;;;;6226565;28;20053;-83
2022/04/17 09:28:31;;;;;;;3.20;0.70;;;24.30;26.20;;;;;;6233915;28;20053;-83
2022/04/17 09:31:35;;;;;;;0.73;0.45;;;24.20;24.80;;;;;;6233632;28;20042;-82
2022/04/17 09:34:44;;;;;;;1.92;0.50;;;23.50;24.80;;;;;;6232439;28;20050;-83
2022/04/17 09:37:47;;;;;;;3.28;1.10;;;23.10;25.20;;;;;;6235065;28;20117;-82
2022/04/17 09:40:50;;;;;;;3.95;1.08;;;23.00;26.00;;;;;;6228996;28;20046;-81
2022/04/17 09:43:52;;;;;;;2.97;0.50;;;23.00;26.00;;;;;;6230215;28;20384;-83
2022/04/17 09:46:59;;;;;;;3.03;0.82;;;22.50;26.00;;;;;;6228691;28;20201;-82
2022/04/17 09:50:02;;;;;;;1.02;0.63;;;22.20;26.50;;;;;;6229473;28;20042;-83
2022/04/17 09:53:06;;;;;;;3.92;0.57;;;22.20;26.60;;;;;;6229523;28;20046;-80
2022/04/17 09:56:10;;;;;;;1.70;0.73;;;21.60;26.30;;;;;;6220354;28;20054;-82
2022/04/17 09:59:17;;;;;;;2.33;0.80;;;20.80;26.80;;;;;;6227596;28;20096;-81
2022/04/17 10:02:21;;;;;;;1.17;0.47;;;19.80;27.60;;;;;;6226218;28;20045;-81
2022/04/17 10:05:23;;;;;;;2.22;0.55;;;19.00;28.20;;;;;;6221646;28;20068;-82
2022/04/17 10:08:26;;;;;;;3.85;1.23;;;18.50;28.60;;;;;;6229565;28;20189;-82
2022/04/17 10:11:30;;;;;;;1.80;0.85;;;18.00;29.10;;;;;;6225447;28;20046;-82
2022/04/17 10:14:32;;;;;;;1.75;0.75;;;18.00;30.20;;;;;;6225622;28;20054;-82
2022/04/17 10:17:38;;;;;;;1.38;0.40;;;18.20;29.90;;;;;;6227000;28;20046;-80
2022/04/17 10:20:41;;;;;;;2.22;0.63;;;18.20;29.30;;;;;;6226960;28;20054;-83
2022/04/17 10:23:46;;;;;;;1.45;0.65;;;18.10;29.80;;;;;;6227597;28;20061;-81
2022/04/17 10:26:50;;;;;;;1.40;0.55;;;18.00;29.60;;;;;;6230919;28;20046;-81
2022/04/17 10:29:57;;;;;;;1.67;0.77;;;18.10;30.00;;;;;;6230044;28;20050;-82
2022/04/17 10:33:31;;;;;;;1.60;0.83;;;18.20;30.10;;;;;;6229218;28;20072;-83
2022/04/17 10:36:44;;;;;;;1.92;1.25;;;18.60;31.60;;;;;;6227590;28;20050;-82
2022/04/17 10:39:49;;;;;;;1.33;0.57;;;19.10;30.80;;;;;;6227886;28;20053;-83
2022/04/17 10:42:56;;;;;;;1.30;0.68;;;19.70;30.60;;;;;;6225710;28;20046;-83
2022/04/17 10:46:12;;;;;;;4.53;0.65;;;20.10;29.70;;;;;;6206930;28;20050;-83
2022/04/17 10:49:19;;;;;;;0.70;0.43;;;20.20;29.90;;;;;;6203523;28;20528;-82
2022/04/17 10:52:29;;;;;;;2.60;0.60;;;19.90;28.80;;;;;;6211538;28;20488;-82
2022/04/17 10:55:33;;;;;;;3.97;0.90;;;19.50;29.50;;;;;;6224592;28;20491;-83
2022/04/17 10:58:37;;;;;;;4.78;0.70;;;19.30;29.40;;;;;;6228136;28;21403;-82
2022/04/17 11:02:17;;;;;;;0.95;0.40;;;19.30;29.60;;;;;;6228615;28;20499;-82
2022/04/17 11:08:57;;;;;;;3.55;1.25;;;19.50;29.00;;;;;;6223859;28;20050;-83
2022/04/17 11:12:07;;;;;;;2.28;0.70;;;19.70;29.20;;;;;;6228942;28;20502;-83
2022/04/17 11:15:28;;;;;;;3.28;0.55;;;19.90;28.90;;;;;;6228405;28;20558;-83
2022/04/17 11:18:31;;;;;;;0.65;0.30;;;20.20;28.70;;;;;;6227765;28;20110;-83
2022/04/17 11:21:39;;;;;;;3.45;1.58;;;20.20;28.10;;;;;;6229142;28;20046;-82
2022/04/17 11:25:05;;;;;;;1.25;0.40;;;20.10;27.70;;;;;;6232310;28;20081;-82
2022/04/17 11:28:07;;;;;;;2.92;0.55;;;20.00;28.00;;;;;;6230554;28;20056;-82
2022/04/17 11:31:09;;;;;;;1.48;0.60;;;20.00;28.60;;;;;;6232339;28;20530;-81
2022/04/17 11:34:11;;;;;;;1.80;0.68;;;20.10;28.40;;;;;;6229984;28;20125;-83
2022/04/17 11:37:17;;;;;;;2.00;0.57;;;20.20;27.70;;;;;;6227993;28;20412;-83
2022/04/17 11:40:20;;;;;;;2.58;1.08;;;20.20;27.40;;;;;;6223075;28;20108;-82
2022/04/17 11:43:22;;;;;;;1.08;0.38;;;20.20;27.80;;;;;;6228699;28;20045;-83
2022/04/17 11:46:24;;;;;;;2.38;0.20;;;20.40;28.50;;;;;;6230118;28;20149;-81
2022/04/17 11:49:32;;;;;;;0.28;0.20;;;20.50;27.50;;;;;;6228312;28;20132;-81
2022/04/17 11:52:36;;;;;;;0.98;0.40;;;20.40;27.70;;;;;;6230397;28;20108;-81
2022/04/17 11:55:40;;;;;;;2.42;1.63;;;20.50;27.40;;;;;;6230971;28;20046;-81
2022/04/17 11:58:42;;;;;;;1.10;0.50;;;20.40;27.60;;;;;;6241482;28;20577;-82
2022/04/17 12:01:44;;;;;;;3.75;1.85;;;20.70;27.40;;;;;;6228153;28;20069;-83
2022/04/17 12:04:47;;;;;;;2.03;0.55;;;20.90;27.80;;;;;;6229744;28;20495;-82
2022/04/17 12:07:58;;;;;;;0.98;0.40;;;21.30;28.50;;;;;;6224259;28;20054;-83
2022/04/17 12:11:01;;;;;;;1.92;0.60;;;21.50;27.60;;;;;;6202382;28;20405;-82
2022/04/17 12:14:03;;;;;;;2.88;0.57;;;21.40;28.10;;;;;;6202671;28;20555;-82
2022/04/17 12:17:05;;;;;;;2.65;0.40;;;21.20;27.40;;;;;;6203853;28;20054;-82
2022/04/17 12:20:09;;;;;;;2.08;0.38;;;21.00;26.80;;;;;;6211180;28;20042;-85
2022/04/17 12:23:12;;;;;;;0.63;0.30;;;20.80;28.00;;;;;;6211811;28;20057;-84
2022/04/17 12:26:15;;;;;;;2.22;0.93;;;21.00;27.80;;;;;;6217490;28;20503;-83
2022/04/17 12:29:17;;;;;;;0.95;0.40;;;20.90;27.70;;;;;;6234149;28;20058;-83
2022/04/17 12:32:22;;;;;;;4.97;0.98;;;21.10;28.30;;;;;;6232670;28;20042;-83
2022/04/17 12:35:25;;;;;;;4.25;0.77;;;21.20;28.70;;;;;;6232690;28;20041;-83
2022/04/17 12:38:28;;;;;;;1.15;0.75;;;21.20;29.00;;;;;;6231429;28;20054;-82
2022/04/17 12:41:37;;;;;;;4.43;0.70;;;21.50;28.70;;;;;;6233274;28;20046;-82
2022/04/17 12:44:41;;;;;;;1.10;0.60;;;21.50;28.60;;;;;;6233459;28;20052;-83
2022/04/17 12:48:00;;;;;;;0.52;0.40;;;21.40;28.30;;;;;;6231760;28;20527;-84
2022/04/17 12:51:03;;;;;;;7.28;1.25;;;21.20;28.10;;;;;;6230054;28;20048;-83
2022/04/17 12:54:09;;;;;;;1.67;0.80;;;20.90;29.20;;;;;;6230691;28;20038;-83
2022/04/17 12:57:13;;;;;;;2.50;0.68;;;21.30;29.20;;;;;;6230873;28;20045;-84
2022/04/17 13:00:16;;;;;;;1.77;0.43;;;21.80;29.00;;;;;;6233032;28;20058;-84
2022/04/17 13:03:18;;;;;;;1.67;0.77;;;22.30;28.20;;;;;;6230263;28;20046;-84
2022/04/17 13:06:22;;;;;;;2.53;0.57;;;22.50;28.20;;;;;;6232541;28;20537;-83
2022/04/17 13:09:28;;;;;;;0.98;0.40;;;22.40;27.30;;;;;;6226096;28;20129;-84
2022/04/17 13:12:31;;;;;;;3.75;0.80;;;22.10;27.40;;;;;;6232159;28;20057;-83
2022/04/17 13:15:34;;;;;;;1.48;0.60;;;21.90;28.30;;;;;;6230672;28;20072;-84
2022/04/17 13:18:36;;;;;;;1.08;0.40;;;21.90;27.90;;;;;;6230210;28;20184;-82
2022/04/17 13:21:38;;;;;;;9.65;3.33;;;21.80;28.10;;;;;;6244175;28;20129;-84
2022/04/17 13:24:44;;;;;;;2.05;0.52;;;21.80;28.20;;;;;;6240785;28;20052;-84
2022/04/17 13:27:46;;;;;;;1.52;0.43;;;21.60;28.30;;;;;;6232340;28;20050;-84
2022/04/17 13:30:49;;;;;;;1.48;0.63;;;21.80;28.80;;;;;;6238495;28;20046;-83
2022/04/17 13:33:51;;;;;;;2.05;0.77;;;22.20;28.20;;;;;;6239624;28;20044;-83
2022/04/17 13:40:11;;;;;;;0.98;0.55;;;22.20;28.00;;;;;;6235583;28;20095;-84
2022/04/17 13:43:13;;;;;;;0.57;0.40;;;21.80;27.60;;;;;;6235176;28;20053;-82
2022/04/17 13:46:15;;;;;;;2.80;0.60;;;21.30;28.00;;;;;;6233245;28;20053;-83
2022/04/17 13:49:17;;;;;;;1.20;0.60;;;21.20;28.50;;;;;;6236535;28;20125;-84
2022/04/17 13:52:19;;;;;;;2.22;0.45;;;21.40;28.40;;;;;;6234273;28;20062;-83
2022/04/17 13:55:22;;;;;;;2.47;0.98;;;21.10;28.20;;;;;;6231564;28;20084;-83
2022/04/17 13:58:24;;;;;;;1.95;0.43;;;20.80;28.70;;;;;;6231702;28;20121;-83
2022/04/17 14:01:25;;;;;;;2.30;0.50;;;20.80;28.70;;;;;;6232765;28;20046;-82
2022/04/17 14:04:27;;;;;;;2.03;0.30;;;21.20;29.10;;;;;;6231153;28;20084;-83
2022/04/17 14:07:29;;;;;;;2.72;0.50;;;21.40;28.30;;;;;;6232078;28;20042;-82
2022/04/17 14:10:32;;;;;;;2.42;0.30;;;21.30;28.20;;;;;;6220634;28;20056;-83
2022/04/17 14:13:34;;;;;;;2.90;0.50;;;21.00;28.30;;;;;;6221873;28;20041;-84
2022/04/17 14:16:36;;;;;;;3.05;0.40;;;21.30;28.90;;;;;;6238473;28;20148;-84
2022/04/17 14:19:38;;;;;;;1.92;0.43;;;21.70;28.60;;;;;;6237040;28;20056;-83
2022/04/17 14:22:40;;;;;;;2.33;0.55;;;21.90;28.00;;;;;;6236301;28;20050;-83
2022/04/17 14:25:43;;;;;;;4.05;0.50;;;21.60;28.00;;;;;;6233105;28;20065;-83
2022/04/17 14:28:44;;;;;;;1.70;0.45;;;21.70;28.00;;;;;;6235854;28;20134;-83
2022/04/17 14:31:46;;;;;;;0.80;0.50;;;21.50;27.90;;;;;;6231807;28;20545;-81
2022/04/17 14:34:48;;;;;;;1.88;0.73;;;21.30;28.20;;;;;;6232559;28;20046;-83
2022/04/17 14:37:50;;;;;;;2.30;0.60;;;21.40;29.00;;;;;;6234506;28;20109;-83
2022/04/17 14:40:53;;;;;;;1.23;0.47;;;21.60;27.80;;;;;;6229755;28;20519;-83
2022/04/17 14:43:55;;;;;;;1.20;0.32;;;21.30;27.60;;;;;;6234462;28;20054;-83
2022/04/17 14:46:57;;;;;;;4.15;0.57;;;21.00;28.50;;;;;;6231447;28;20046;-83
2022/04/17 14:49:59;;;;;;;1.92;0.50;;;21.30;28.10;;;;;;6233680;28;20043;-83
2022/04/17 14:53:02;;;;;;;0.75;0.30;;;21.50;27.30;;;;;;6234461;28;20132;-83
2022/04/17 14:56:06;;;;;;;1.27;0.35;;;21.60;27.50;;;;;;6232924;28;20410;-83
2022/04/17 14:59:07;;;;;;;2.70;0.30;;;21.30;27.00;;;;;;6230397;28;20085;-82
2022/04/17 15:02:11;;;;;;;0.75;0.40;;;20.90;27.10;;;;;;6228623;28;20049;-82
2022/04/17 15:05:13;;;;;;;3.35;0.88;;;20.50;27.80;;;;;;6229629;28;20041;-83
2022/04/17 15:08:15;;;;;;;2.40;0.60;;;20.40;28.00;;;;;;6232913;28;20143;-83
2022/04/17 15:11:18;;;;;;;1.27;0.50;;;20.20;28.20;;;;;;6233347;28;20058;-84
2022/04/17 15:14:20;;;;;;;3.05;0.50;;;20.10;27.90;;;;;;6239056;28;20045;-83
2022/04/17 15:17:23;;;;;;;1.48;0.43;;;20.00;28.10;;;;;;6253850;28;20049;-81
2022/04/17 15:20:24;;;;;;;1.90;0.68;;;19.90;28.10;;;;;;6245438;28;20050;-84
2022/04/17 15:23:26;;;;;;;2.42;0.47;;;19.90;28.10;;;;;;6239078;28;20055;-83
2022/04/17 15:26:29;;;;;;;2.15;0.45;;;20.00;28.10;;;;;;6234940;28;20113;-83
2022/04/17 15:29:31;;;;;;;2.25;0.70;;;19.90;28.20;;;;;;6232627;28;20062;-83
2022/04/17 15:32:33;;;;;;;1.08;0.25;;;20.10;28.10;;;;;;6232714;28;20109;-83
2022/04/17 15:35:35;;;;;;;3.38;0.50;;;20.10;27.50;;;;;;6236818;28;20133;-83
2022/04/17 15:38:36;;;;;;;2.17;0.50;;;19.90;27.90;;;;;;6233413;28;20069;-83
2022/04/17 15:41:41;;;;;;;3.47;0.82;;;19.70;28.00;;;;;;6234543;28;20550;-83
2022/04/17 15:48:08;;;;;;;2.58;0.40;;;19.70;27.70;;;;;;6231476;28;20042;-83
2022/04/17 15:51:09;;;;;;;1.95;0.52;;;19.50;28.00;;;;;;6231181;28;20045;-81
2022/04/17 15:54:11;;;;;;;3.83;0.82;;;19.30;28.00;;;;;;6227819;28;20139;-82
2022/04/17 15:57:17;;;;;;;0.55;0.28;;;19.20;28.30;;;;;;6228781;28;20041;-82
2022/04/17 16:00:19;;;;;;;1.70;0.75;;;19.10;28.30;;;;;;6228331;28;20045;-82
2022/04/17 16:03:20;;;;;;;2.00;0.73;;;18.90;28.40;;;;;;6229618;28;20056;-81
2022/04/17 16:06:22;;;;;;;2.13;0.50;;;18.60;28.50;;;;;;6227883;28;20054;-81
2022/04/17 16:09:24;;;;;;;2.53;0.63;;;18.60;28.80;;;;;;6226083;28;20050;-81
2022/04/17 16:12:28;;;;;;;0.60;0.30;;;18.40;28.90;;;;;;6220610;28;20251;-80
2022/04/17 16:15:30;;;;;;;1.55;0.60;;;18.10;28.60;;;;;;6225852;28;20041;-81
2022/04/17 16:18:32;;;;;;;1.25;0.50;;;18.10;29.10;;;;;;6227643;28;20133;-82